createdAt,value
2018-07-11T00:01:04.454Z,100902.00
2018-07-11T00:03:56.636Z,100911.00
2018-07-11T00:06:26.776Z,100899.00
2018-07-11T00:08:55.946Z,100903.00
2018-07-11T00:11:25.232Z,100904.00
2018-07-11T00:13:54.468Z,100906.00
2018-07-11T00:16:23.701Z,100903.00
2018-07-11T00:18:52.874Z,100905.00
2018-07-11T00:21:21.998Z,100906.00
2018-07-11T00:23:51.137Z,100904.00
2018-07-11T00:26:20.291Z,100885.00
2018-07-11T00:28:49.982Z,100876.00
2018-07-11T00:31:19.091Z,100881.00
2018-07-11T00:33:48.248Z,100893.00
2018-07-11T00:36:17.612Z,100898.00
2018-07-11T00:38:49.529Z,100907.00
2018-07-11T00:41:18.645Z,100909.00
2018-07-11T00:43:47.510Z,100907.00
2018-07-11T00:46:18.832Z,100916.00
2018-07-11T00:48:48.394Z,100922.00
2018-07-11T00:51:17.526Z,100913.00
2018-07-11T00:53:46.610Z,100914.00
2018-07-11T00:56:15.725Z,100914.00
2018-07-11T00:59:22.807Z,100912.00
2018-07-11T01:01:52.341Z,100911.00
2018-07-11T01:04:21.840Z,100906.00
2018-07-11T01:06:51.531Z,100907.00
2018-07-11T01:09:20.751Z,100899.00
2018-07-11T01:11:59.324Z,100898.00
2018-07-11T01:14:28.585Z,100896.00
2018-07-11T01:16:57.645Z,100892.00
2018-07-11T01:19:26.763Z,100890.00
2018-07-11T01:22:03.545Z,100889.00
2018-07-11T01:24:33.123Z,100887.00
2018-07-11T01:27:02.296Z,100889.00
2018-07-11T01:29:31.438Z,100880.00
2018-07-11T01:32:00.521Z,100886.00
2018-07-11T01:34:31.497Z,100875.00
2018-07-11T01:37:00.808Z,100861.00
2018-07-11T01:39:29.903Z,100863.00
2018-07-11T01:41:59.010Z,100863.00
2018-07-11T01:44:28.232Z,100865.00
2018-07-11T01:46:58.475Z,100856.00
2018-07-11T01:49:27.933Z,100861.00
2018-07-11T01:52:15.794Z,100859.00
2018-07-11T01:54:45.091Z,100863.00
2018-07-11T01:57:14.305Z,100863.00
2018-07-11T01:59:43.619Z,100883.00
2018-07-11T02:02:13.222Z,100861.00
2018-07-11T02:04:42.532Z,100855.00
2018-07-11T02:07:12.635Z,100854.00
2018-07-11T02:09:42.424Z,100853.00
2018-07-11T02:12:12.415Z,100852.00
2018-07-11T02:14:41.862Z,100851.00
2018-07-11T02:17:10.959Z,100844.00
2018-07-11T02:19:40.624Z,100844.00
2018-07-11T02:22:10.011Z,100833.00
2018-07-11T02:24:39.156Z,100835.00
2018-07-11T02:27:08.319Z,100834.00
2018-07-11T02:29:37.578Z,100831.00
2018-07-11T02:32:06.799Z,100824.00
2018-07-11T02:34:35.977Z,100836.00
2018-07-11T02:37:05.637Z,100831.00
2018-07-11T02:39:35.031Z,100822.00
2018-07-11T02:42:04.148Z,100823.00
2018-07-11T02:44:33.457Z,100827.00
2018-07-11T02:48:06.402Z,100827.00
2018-07-11T02:50:35.581Z,100827.00
2018-07-11T02:53:04.671Z,100821.00
2018-07-11T02:55:33.762Z,100824.00
2018-07-11T02:58:02.906Z,100818.00
2018-07-11T03:00:32.010Z,100812.00
2018-07-11T03:03:01.124Z,100811.00
2018-07-11T03:05:30.242Z,100798.00
2018-07-11T03:07:59.310Z,100797.00
2018-07-11T03:10:28.395Z,100797.00
2018-07-11T03:12:57.574Z,100792.00
2018-07-11T03:15:26.687Z,100788.00
2018-07-11T03:17:55.957Z,100781.00
2018-07-11T03:20:25.448Z,100766.00
2018-07-11T03:22:55.071Z,100757.00
2018-07-11T03:25:24.259Z,100762.00
2018-07-11T03:27:53.470Z,100771.00
2018-07-11T03:30:22.669Z,100765.00
2018-07-11T03:32:51.802Z,100766.00
2018-07-11T03:35:21.014Z,100768.00
2018-07-11T03:37:50.176Z,100761.00
2018-07-11T03:40:19.250Z,100764.00
2018-07-11T03:42:48.393Z,100766.00
2018-07-11T03:45:17.567Z,100776.00
2018-07-11T03:47:46.816Z,100785.00
2018-07-11T03:50:15.948Z,100789.00
2018-07-11T03:52:45.075Z,100792.00
2018-07-11T03:55:13.926Z,100793.00
2018-07-11T03:57:43.548Z,100783.00
2018-07-11T04:00:13.038Z,100782.00
2018-07-11T04:02:42.292Z,100793.00
2018-07-11T04:05:11.825Z,100794.00
2018-07-11T04:07:41.068Z,100792.00
2018-07-11T04:10:10.322Z,100779.00
2018-07-11T04:12:42.494Z,100780.00
2018-07-11T04:15:11.652Z,100792.00
2018-07-11T04:17:40.738Z,100776.00
2018-07-11T04:20:09.599Z,100776.00
2018-07-11T04:22:38.763Z,100769.00
2018-07-11T04:25:09.752Z,100779.00
2018-07-11T04:27:38.985Z,100772.00
2018-07-11T04:30:08.284Z,100770.00
2018-07-11T04:32:40.432Z,100763.00
2018-07-11T04:35:09.596Z,100774.00
2018-07-11T04:37:38.811Z,100770.00
2018-07-11T04:40:08.309Z,100774.00
2018-07-11T04:42:38.016Z,100781.00
2018-07-11T04:45:07.216Z,100780.00
2018-07-11T04:47:36.641Z,100777.00
2018-07-11T04:50:05.798Z,100769.00
2018-07-11T04:52:35.626Z,100778.00
2018-07-11T04:55:04.946Z,100761.00
2018-07-11T04:57:34.202Z,100763.00
2018-07-11T05:00:03.361Z,100753.00
2018-07-11T05:02:32.469Z,100752.00
2018-07-11T05:05:01.614Z,100759.00
2018-07-11T05:07:33.219Z,100760.00
2018-07-11T05:10:03.638Z,100762.00
2018-07-11T05:12:33.089Z,100754.00
2018-07-11T05:15:02.262Z,100758.00
2018-07-11T05:17:31.420Z,100749.00
2018-07-11T05:20:00.583Z,100755.00
2018-07-11T05:22:29.485Z,100743.00
2018-07-11T05:25:00.208Z,100737.00
2018-07-11T05:27:29.440Z,100728.00
2018-07-11T05:30:16.181Z,100739.00
2018-07-11T05:32:45.442Z,100736.00
2018-07-11T05:35:14.591Z,100729.00
2018-07-11T05:37:44.053Z,100737.00
2018-07-11T05:40:13.250Z,100743.00
2018-07-11T05:42:42.370Z,100741.00
2018-07-11T05:45:11.539Z,100743.00
2018-07-11T05:47:40.691Z,100741.00
2018-07-11T05:50:09.800Z,100737.00
2018-07-11T05:52:38.921Z,100751.00
2018-07-11T05:55:08.462Z,100749.00
2018-07-11T05:57:37.749Z,100744.00
2018-07-11T06:00:07.072Z,100747.00
2018-07-11T06:02:36.505Z,100752.00
2018-07-11T06:05:05.659Z,100739.00
2018-07-11T06:07:34.765Z,100745.00
2018-07-11T06:10:03.940Z,100744.00
2018-07-11T06:12:33.042Z,100741.00
2018-07-11T06:15:02.251Z,100744.00
2018-07-11T06:17:31.472Z,100743.00
2018-07-11T06:20:00.739Z,100748.00
2018-07-11T06:22:30.298Z,100754.00
2018-07-11T06:24:59.296Z,100747.00
2018-07-11T06:27:28.552Z,100747.00
2018-07-11T06:29:57.800Z,100741.00
2018-07-11T06:32:27.276Z,100748.00
2018-07-11T06:34:56.778Z,100756.00
2018-07-11T06:37:26.031Z,100758.00
2018-07-11T06:39:55.350Z,100756.00
2018-07-11T06:42:24.549Z,100754.00
2018-07-11T06:44:53.767Z,100750.00
2018-07-11T06:47:25.282Z,100746.00
2018-07-11T06:49:54.391Z,100748.00
2018-07-11T06:52:23.557Z,100746.00
2018-07-11T06:54:52.741Z,100739.00
2018-07-11T06:57:21.889Z,100747.00
2018-07-11T06:59:51.111Z,100746.00
2018-07-11T07:02:20.048Z,100737.00
2018-07-11T07:04:49.198Z,100741.00
2018-07-11T07:07:18.723Z,100757.00
2018-07-11T07:09:47.853Z,100747.00
2018-07-11T07:12:16.985Z,100753.00
2018-07-11T07:14:46.170Z,100742.00
2018-07-11T07:17:15.323Z,100751.00
2018-07-11T07:19:44.433Z,100753.00
2018-07-11T07:22:13.560Z,100767.00
2018-07-11T07:24:42.792Z,100762.00
2018-07-11T07:27:12.206Z,100756.00
2018-07-11T07:29:41.645Z,100758.00
2018-07-11T07:32:13.563Z,100761.00
2018-07-11T07:34:43.042Z,100757.00
2018-07-11T07:37:12.297Z,100762.00
2018-07-11T07:39:41.744Z,100755.00
2018-07-11T07:42:10.889Z,100757.00
2018-07-11T07:44:40.264Z,100755.00
2018-07-11T07:47:15.022Z,100748.00
2018-07-11T07:49:44.119Z,100754.00
2018-07-11T07:52:13.281Z,100750.00
2018-07-11T07:54:42.571Z,100753.00
2018-07-11T07:57:11.901Z,100745.00
2018-07-11T07:59:41.418Z,100739.00
2018-07-11T08:02:10.726Z,100744.00
2018-07-11T08:04:41.390Z,100739.00
2018-07-11T08:07:11.027Z,100731.00
2018-07-11T08:09:40.467Z,100732.00
2018-07-11T08:12:09.905Z,100728.00
2018-07-11T08:14:39.267Z,100726.00
2018-07-11T08:17:08.404Z,100730.00
2018-07-11T08:19:37.762Z,100727.00
2018-07-11T08:22:24.129Z,100728.00
2018-07-11T08:25:10.413Z,100729.00
2018-07-11T08:27:56.380Z,100732.00
2018-07-11T08:33:08.325Z,100735.00
2018-07-11T08:36:59.988Z,100738.00
2018-07-11T08:40:53.837Z,100741.00
2018-07-11T08:43:48.099Z,100742.00
2018-07-11T08:46:49.070Z,100735.00
2018-07-11T08:49:47.352Z,100738.00
2018-07-11T08:54:38.720Z,100737.00
2018-07-11T08:57:27.518Z,100734.00
2018-07-11T09:04:21.612Z,100735.00
2018-07-11T09:11:13.541Z,100755.00
2018-07-11T09:15:58.495Z,100754.00
2018-07-11T09:21:06.813Z,100743.00
2018-07-11T09:24:45.256Z,100747.00
2018-07-11T09:27:14.618Z,100638.00
2018-07-11T09:29:44.893Z,100742.00
2018-07-11T09:32:15.138Z,100729.00
2018-07-11T09:34:44.512Z,100728.00
2018-07-11T09:37:13.977Z,100728.00
2018-07-11T09:39:43.656Z,100738.00
2018-07-11T09:42:13.082Z,100727.00
2018-07-11T09:44:42.598Z,100713.00
2018-07-11T09:47:16.913Z,100719.00
2018-07-11T09:49:46.355Z,100714.00
2018-07-11T09:52:15.492Z,100721.00
2018-07-11T09:54:44.713Z,100720.00
2018-07-11T09:57:13.783Z,100714.00
2018-07-11T09:59:42.875Z,100712.00
2018-07-11T10:02:12.144Z,100709.00
2018-07-11T10:04:41.341Z,100709.00
2018-07-11T10:07:10.606Z,100706.00
2018-07-11T10:09:40.296Z,100712.00
2018-07-11T10:12:09.646Z,100721.00
2018-07-11T10:14:38.889Z,100718.00
2018-07-11T10:17:08.500Z,100720.00
2018-07-11T10:19:37.827Z,100718.00
2018-07-11T10:22:07.347Z,100726.00
2018-07-11T10:24:36.727Z,100717.00
2018-07-11T10:27:06.028Z,100723.00
2018-07-11T10:29:35.703Z,100719.00
2018-07-11T10:32:05.196Z,100721.00
2018-07-11T10:34:35.240Z,100713.00
2018-07-11T10:37:05.034Z,100707.00
2018-07-11T10:39:35.027Z,100709.00
2018-07-11T10:42:04.596Z,100705.00
2018-07-11T10:44:34.004Z,100704.00
2018-07-11T10:47:12.877Z,100705.00
2018-07-11T10:49:43.535Z,100712.00
2018-07-11T10:52:12.775Z,100710.00
2018-07-11T10:54:42.225Z,100706.00
2018-07-11T10:57:11.712Z,100721.00
2018-07-11T10:59:41.496Z,100716.00
2018-07-11T11:02:11.941Z,100724.00
2018-07-11T11:04:41.429Z,100721.00
2018-07-11T11:07:10.795Z,100727.00
2018-07-11T11:09:40.117Z,100714.00
2018-07-11T11:12:09.403Z,100720.00
2018-07-11T11:14:38.877Z,100723.00
2018-07-11T11:17:08.255Z,100719.00
2018-07-11T11:19:38.083Z,100719.00
2018-07-11T11:22:07.321Z,100705.00
2018-07-11T11:24:36.514Z,100717.00
2018-07-11T11:27:05.713Z,100719.00
2018-07-11T11:29:34.932Z,100718.00
2018-07-11T11:32:04.101Z,100721.00
2018-07-11T11:34:33.470Z,100725.00
2018-07-11T11:37:03.078Z,100726.00
2018-07-11T11:39:32.884Z,100728.00
2018-07-11T11:42:02.180Z,100724.00
2018-07-11T11:44:31.164Z,100723.00
2018-07-11T11:47:02.633Z,100735.00
2018-07-11T11:49:32.284Z,100736.00
2018-07-11T11:52:01.499Z,100743.00
2018-07-11T11:54:30.749Z,100743.00
2018-07-11T11:56:59.847Z,100738.00
2018-07-11T11:59:28.956Z,100738.00
2018-07-11T12:01:58.249Z,100737.00
2018-07-11T12:04:27.528Z,100740.00
2018-07-11T12:06:56.577Z,100746.00
2018-07-11T12:09:25.716Z,100751.00
2018-07-11T12:11:56.074Z,100742.00
2018-07-11T12:14:25.156Z,100746.00
2018-07-11T12:16:54.455Z,100733.00
2018-07-11T12:19:23.745Z,100720.00
2018-07-11T12:21:53.353Z,100718.00
2018-07-11T12:24:23.290Z,100715.00
2018-07-11T12:26:52.702Z,100718.00
2018-07-11T12:29:22.121Z,100722.00
2018-07-11T12:31:51.429Z,100717.00
2018-07-11T12:34:20.581Z,100721.00
2018-07-11T12:36:50.124Z,100717.00
2018-07-11T12:39:19.445Z,100715.00
2018-07-11T12:41:48.584Z,100715.00
2018-07-11T12:44:17.676Z,100711.00
2018-07-11T12:46:47.027Z,100716.00
2018-07-11T12:49:16.481Z,100726.00
2018-07-11T12:51:45.730Z,100730.00
2018-07-11T12:54:14.909Z,100739.00
2018-07-11T12:56:44.154Z,100729.00
2018-07-11T12:59:13.437Z,100744.00
2018-07-11T13:01:43.064Z,100744.00
2018-07-11T13:04:12.328Z,100744.00
2018-07-11T13:06:41.634Z,100743.00
2018-07-11T13:09:10.711Z,100761.00
2018-07-11T13:11:39.913Z,100757.00
2018-07-11T13:14:09.101Z,100758.00
2018-07-11T13:16:38.292Z,100755.00
2018-07-11T13:19:07.521Z,100757.00
2018-07-11T13:21:36.770Z,100754.00
2018-07-11T13:24:05.849Z,100754.00
2018-07-11T13:26:34.965Z,100755.00
2018-07-11T13:29:04.141Z,100753.00
2018-07-11T13:31:33.256Z,100756.00
2018-07-11T13:34:02.396Z,100755.00
2018-07-11T13:36:32.001Z,100757.00
2018-07-11T13:39:01.091Z,100750.00
2018-07-11T13:41:30.364Z,100749.00
2018-07-11T13:43:59.686Z,100753.00
2018-07-11T13:46:29.824Z,100752.00
2018-07-11T13:48:58.973Z,100754.00
2018-07-11T13:51:28.259Z,100759.00
2018-07-11T13:53:57.537Z,100741.00
2018-07-11T13:56:26.731Z,100754.00
2018-07-11T13:58:55.919Z,100750.00
2018-07-11T14:01:25.418Z,100747.00
2018-07-11T14:03:54.680Z,100748.00
2018-07-11T14:06:23.845Z,100750.00
2018-07-11T14:08:53.228Z,100750.00
2018-07-11T14:11:22.534Z,100751.00
2018-07-11T14:13:55.343Z,100751.00
2018-07-11T14:16:25.301Z,100746.00
2018-07-11T14:18:54.508Z,100749.00
2018-07-11T14:21:23.685Z,100746.00
2018-07-11T14:23:53.065Z,100746.00
2018-07-11T14:26:22.373Z,100750.00
2018-07-11T14:28:53.345Z,100747.00
2018-07-11T14:31:29.022Z,100746.00
2018-07-11T14:34:05.957Z,100741.00
2018-07-11T14:36:35.657Z,100751.00
2018-07-11T14:39:06.340Z,100755.00
2018-07-11T14:41:35.672Z,100748.00
2018-07-11T14:44:04.864Z,100754.00
2018-07-11T14:46:35.765Z,100753.00
2018-07-11T14:49:05.003Z,100748.00
2018-07-11T14:51:34.628Z,100751.00
2018-07-11T14:54:04.137Z,100756.00
2018-07-11T14:56:33.349Z,100744.00
2018-07-11T14:59:02.525Z,100749.00
2018-07-11T15:01:31.752Z,100746.00
2018-07-11T15:04:01.073Z,100746.00
2018-07-11T15:06:30.275Z,100750.00
2018-07-11T15:08:59.532Z,100749.00
2018-07-11T15:11:28.660Z,100752.00
2018-07-11T15:13:57.834Z,100751.00
2018-07-11T15:16:27.459Z,100757.00
2018-07-11T15:18:56.693Z,100757.00
2018-07-11T15:21:25.876Z,100757.00
2018-07-11T15:23:55.084Z,100751.00
2018-07-11T15:26:24.699Z,100763.00
2018-07-11T15:28:54.032Z,100753.00
2018-07-11T15:31:28.873Z,100758.00
2018-07-11T15:33:58.419Z,100758.00
2018-07-11T15:36:28.034Z,100759.00
2018-07-11T15:38:57.816Z,100765.00
2018-07-11T15:41:27.259Z,100758.00
2018-07-11T15:43:57.460Z,100760.00
2018-07-11T15:46:26.455Z,100759.00
2018-07-11T15:48:55.454Z,100757.00
2018-07-11T15:51:25.035Z,100767.00
2018-07-11T15:53:55.140Z,100754.00
2018-07-11T15:56:25.616Z,100753.00
2018-07-11T15:59:04.262Z,100758.00
2018-07-11T16:01:34.936Z,100752.00
2018-07-11T16:04:05.038Z,100760.00
2018-07-11T16:06:36.532Z,100755.00
2018-07-11T16:09:06.328Z,100752.00
2018-07-11T16:11:35.680Z,100754.00
2018-07-11T16:14:04.912Z,100751.00
2018-07-11T16:16:34.245Z,100753.00
2018-07-11T16:19:03.480Z,100750.00
2018-07-11T16:21:32.690Z,100748.00
2018-07-11T16:24:02.659Z,100750.00
2018-07-11T16:26:32.476Z,100739.00
2018-07-11T16:29:01.803Z,100757.00
2018-07-11T16:31:36.213Z,100752.00
2018-07-11T16:34:08.342Z,100759.00
2018-07-11T16:36:37.813Z,100750.00
2018-07-11T16:39:08.856Z,100747.00
2018-07-11T16:41:40.265Z,100742.00
2018-07-11T16:44:09.498Z,100745.00
2018-07-11T16:46:38.835Z,100745.00
2018-07-11T16:49:08.326Z,100748.00
2018-07-11T16:51:37.712Z,100753.00
2018-07-11T16:54:06.968Z,100758.00
2018-07-11T16:56:36.484Z,100757.00
2018-07-11T16:59:06.678Z,100765.00
2018-07-11T17:01:49.366Z,100764.00
2018-07-11T17:04:19.232Z,100767.00
2018-07-11T17:06:48.622Z,100762.00
2018-07-11T17:09:17.747Z,100766.00
2018-07-11T17:11:47.975Z,100761.00
2018-07-11T17:14:18.631Z,100758.00
2018-07-11T17:16:58.781Z,100755.00
2018-07-11T17:19:39.332Z,100760.00
2018-07-11T17:22:09.887Z,100759.00
2018-07-11T17:24:46.389Z,100754.00
2018-07-11T17:27:19.314Z,100764.00
2018-07-11T17:29:51.353Z,100770.00
2018-07-11T17:32:20.710Z,100766.00
2018-07-11T17:34:50.038Z,100768.00
2018-07-11T17:37:21.992Z,100773.00
2018-07-11T17:39:55.598Z,100776.00
2018-07-11T17:42:27.197Z,100767.00
2018-07-11T17:45:11.808Z,100770.00
2018-07-11T17:50:07.770Z,100776.00
2018-07-11T17:53:57.728Z,100785.00
2018-07-11T17:56:46.035Z,100782.00
2018-07-11T17:59:16.224Z,100774.00
2018-07-11T18:01:51.750Z,100775.00
2018-07-11T18:04:37.055Z,100779.00
2018-07-11T18:07:12.703Z,100773.00
2018-07-11T18:09:57.362Z,100784.00
2018-07-11T18:12:33.807Z,100783.00
2018-07-11T18:15:12.595Z,100790.00
2018-07-11T18:18:12.561Z,100783.00
2018-07-11T18:20:58.481Z,100792.00
2018-07-11T18:24:11.450Z,100788.00
2018-07-11T18:27:54.783Z,100791.00
2018-07-11T18:31:42.372Z,100793.00
2018-07-11T18:34:32.703Z,100799.00
2018-07-11T18:37:24.723Z,100807.00
2018-07-11T18:40:01.677Z,100803.00
2018-07-11T18:42:47.820Z,100803.00
2018-07-11T18:45:50.070Z,100805.00
2018-07-11T18:48:33.236Z,100802.00
2018-07-11T18:51:20.897Z,100805.00
2018-07-11T18:53:57.289Z,100808.00
2018-07-11T18:56:43.078Z,100804.00
2018-07-11T18:59:29.694Z,100803.00
2018-07-11T19:02:44.071Z,100805.00
2018-07-11T19:05:25.020Z,100805.00
2018-07-11T19:08:01.447Z,100799.00
2018-07-11T19:10:47.810Z,100797.00
2018-07-11T19:13:32.150Z,100814.00
2018-07-11T19:16:14.696Z,100813.00
2018-07-11T19:19:20.505Z,100809.00
2018-07-11T19:21:57.865Z,100809.00
2018-07-11T19:24:47.793Z,100807.00
2018-07-11T19:29:57.229Z,100818.00
2018-07-11T19:32:39.882Z,100812.00
2018-07-11T19:36:25.700Z,100827.00
2018-07-11T19:39:08.819Z,100830.00
2018-07-11T19:41:57.182Z,100819.00
2018-07-11T19:44:55.422Z,100817.00
2018-07-11T19:47:45.732Z,100825.00
2018-07-11T19:52:28.392Z,100819.00
2018-07-11T19:55:23.226Z,100836.00
2018-07-11T19:57:52.635Z,100836.00
2018-07-11T20:00:21.929Z,100831.00
2018-07-11T20:02:51.314Z,100834.00
2018-07-11T20:05:21.159Z,100844.00
2018-07-11T20:07:50.716Z,100843.00
2018-07-11T20:10:20.092Z,100850.00
2018-07-11T20:12:49.266Z,100829.00
2018-07-11T20:15:18.997Z,100832.00
2018-07-11T20:17:48.417Z,100844.00
2018-07-11T20:20:17.746Z,100835.00
2018-07-11T20:22:47.058Z,100829.00
2018-07-11T20:25:16.379Z,100827.00
2018-07-11T20:27:45.594Z,100820.00
2018-07-11T20:30:15.016Z,100819.00
2018-07-11T20:32:44.484Z,100818.00
2018-07-11T20:35:14.162Z,100808.00
2018-07-11T20:37:43.821Z,100809.00
2018-07-11T20:40:13.365Z,100803.00
2018-07-11T20:42:42.896Z,100806.00
2018-07-11T20:45:12.380Z,100810.00
2018-07-11T20:47:41.682Z,100809.00
2018-07-11T20:50:10.922Z,100808.00
2018-07-11T20:52:40.232Z,100809.00
2018-07-11T20:55:09.685Z,100805.00
2018-07-11T20:57:38.853Z,100814.00
2018-07-11T21:00:25.057Z,100807.00
2018-07-11T21:03:14.112Z,100817.00
2018-07-11T21:09:57.302Z,100815.00
2018-07-11T21:12:47.205Z,100823.00
2018-07-11T21:19:34.708Z,100820.00
2018-07-11T21:22:03.932Z,100819.00
2018-07-11T21:24:33.117Z,100816.00
2018-07-11T21:27:02.354Z,100813.00
2018-07-11T21:29:31.290Z,100812.00
2018-07-11T21:32:00.831Z,100820.00
2018-07-11T21:34:30.178Z,100819.00
2018-07-11T21:37:00.196Z,100813.00
2018-07-11T21:39:29.428Z,100819.00
2018-07-11T21:41:58.702Z,100818.00
2018-07-11T21:44:28.073Z,100824.00
2018-07-11T21:46:57.464Z,100822.00
2018-07-11T21:49:26.709Z,100813.00
2018-07-11T21:51:56.100Z,100822.00
2018-07-11T21:54:25.441Z,100818.00
2018-07-11T21:56:55.572Z,100819.00
2018-07-11T21:59:25.042Z,100818.00
2018-07-11T22:01:54.330Z,100826.00
2018-07-11T22:04:23.588Z,100818.00
2018-07-11T22:06:52.932Z,100828.00
2018-07-11T22:09:22.284Z,100828.00
2018-07-11T22:11:51.863Z,100832.00
2018-07-11T22:14:21.269Z,100829.00
2018-07-11T22:16:50.667Z,100845.00
2018-07-11T22:19:20.103Z,100832.00
2018-07-11T22:21:47.704Z,100832.00
2018-07-11T22:24:15.357Z,100846.00
2018-07-11T22:26:42.999Z,100847.00
2018-07-11T22:29:10.618Z,100837.00
2018-07-11T22:31:38.254Z,100834.00
2018-07-11T22:34:05.965Z,100835.00
2018-07-11T22:36:33.632Z,100833.00
2018-07-11T22:39:01.297Z,100831.00
2018-07-11T22:41:28.927Z,100831.00
2018-07-11T22:43:56.590Z,100830.00
2018-07-11T22:46:24.516Z,100830.00
2018-07-11T22:48:52.142Z,100825.00
2018-07-11T22:51:19.811Z,100828.00
2018-07-11T22:53:47.508Z,100832.00
2018-07-11T22:56:15.205Z,100825.00
2018-07-11T22:58:42.889Z,100821.00
2018-07-11T23:01:10.612Z,100824.00
2018-07-11T23:03:38.302Z,100828.00
2018-07-11T23:06:05.985Z,100825.00
2018-07-11T23:08:33.738Z,100830.00
2018-07-11T23:11:01.471Z,100826.00
2018-07-11T23:13:29.119Z,100831.00
2018-07-11T23:15:56.856Z,100836.00
2018-07-11T23:18:24.541Z,100834.00
2018-07-11T23:20:52.231Z,100825.00
2018-07-11T23:23:19.865Z,100824.00
2018-07-11T23:25:47.491Z,100822.00
2018-07-11T23:28:15.118Z,100824.00
2018-07-11T23:30:42.749Z,100827.00
2018-07-11T23:33:10.465Z,100823.00
2018-07-11T23:35:38.108Z,100821.00
2018-07-11T23:38:06.035Z,100808.00
2018-07-11T23:40:33.763Z,100815.00
2018-07-11T23:43:01.672Z,100808.00
2018-07-11T23:45:29.415Z,100812.00
2018-07-11T23:47:57.133Z,100806.00
2018-07-11T23:50:24.842Z,100808.00
2018-07-11T23:52:52.473Z,100810.00
2018-07-11T23:55:20.138Z,100815.00
2018-07-11T23:57:47.886Z,100805.00
